sensor_id;sensor_type;location;lat;lon;timestamp;P1;durP1;ratioP1;P2;durP2;ratioP2
61391;SDS011;47261;52.892;5.738;2023-03-01T00:01:03;45.58;;;16.48;;
61391;SDS011;47261;52.892;5.738;2023-03-01T00:03:30;32.83;;;12.87;;
61391;SDS011;47261;52.892;5.738;2023-03-01T00:05:57;43.25;;;15.93;;
61391;SDS011;47261;52.892;5.738;2023-03-01T00:08:22;39.17;;;15.38;;
61391;SDS011;47261;52.892;5.738;2023-03-01T00:10:48;36.80;;;15.05;;
61391;SDS011;47261;52.892;5.738;2023-03-01T00:13:14;43.40;;;15.13;;
61391;SDS011;47261;52.892;5.738;2023-03-01T00:15:40;37.40;;;15.52;;
61391;SDS011;47261;52.892;5.738;2023-03-01T00:18:06;37.90;;;13.33;;
61391;SDS011;47261;52.892;5.738;2023-03-01T00:20:33;33.70;;;14.02;;
61391;SDS011;47261;52.892;5.738;2023-03-01T00:22:59;38.20;;;16.83;;
61391;SDS011;47261;52.892;5.738;2023-03-01T00:25:25;35.93;;;14.97;;
61391;SDS011;47261;52.892;5.738;2023-03-01T00:27:50;45.38;;;16.15;;
61391;SDS011;47261;52.892;5.738;2023-03-01T00:30:16;39.60;;;16.73;;
61391;SDS011;47261;52.892;5.738;2023-03-01T00:32:42;93.15;;;15.95;;
61391;SDS011;47261;52.892;5.738;2023-03-01T00:35:07;88.73;;;14.87;;
61391;SDS011;47261;52.892;5.738;2023-03-01T00:37:33;102.55;;;16.23;;
61391;SDS011;47261;52.892;5.738;2023-03-01T00:39:58;182.17;;;21.83;;
61391;SDS011;47261;52.892;5.738;2023-03-01T00:42:24;134.90;;;17.77;;
61391;SDS011;47261;52.892;5.738;2023-03-01T00:44:50;120.80;;;13.87;;
61391;SDS011;47261;52.892;5.738;2023-03-01T00:47:15;83.13;;;13.47;;
61391;SDS011;47261;52.892;5.738;2023-03-01T00:49:41;111.15;;;13.15;;
61391;SDS011;47261;52.892;5.738;2023-03-01T00:52:06;307.33;;;22.00;;
61391;SDS011;47261;52.892;5.738;2023-03-01T00:54:32;180.35;;;15.80;;
61391;SDS011;47261;52.892;5.738;2023-03-01T00:56:58;359.60;;;24.70;;
61391;SDS011;47261;52.892;5.738;2023-03-01T00:59:23;40.97;;;9.23;;
61391;SDS011;47261;52.892;5.738;2023-03-01T01:01:49;29.98;;;11.88;;
61391;SDS011;47261;52.892;5.738;2023-03-01T01:04:14;26.53;;;11.93;;
61391;SDS011;47261;52.892;5.738;2023-03-01T01:06:44;25.98;;;10.68;;
61391;SDS011;47261;52.892;5.738;2023-03-01T01:09:12;42.53;;;10.33;;
61391;SDS011;47261;52.892;5.738;2023-03-01T01:11:46;26.23;;;11.15;;
61391;SDS011;47261;52.892;5.738;2023-03-01T01:14:13;35.17;;;15.30;;
61391;SDS011;47261;52.892;5.738;2023-03-01T01:16:39;189.07;;;20.95;;
61391;SDS011;47261;52.892;5.738;2023-03-01T01:19:05;217.70;;;19.53;;
61391;SDS011;47261;52.892;5.738;2023-03-01T01:21:31;336.98;;;26.60;;
61391;SDS011;47261;52.892;5.738;2023-03-01T01:23:57;228.77;;;20.45;;
61391;SDS011;47261;52.892;5.738;2023-03-01T01:26:27;315.92;;;26.27;;
61391;SDS011;47261;52.892;5.738;2023-03-01T01:28:54;400.23;;;37.17;;
61391;SDS011;47261;52.892;5.738;2023-03-01T01:31:21;470.13;;;30.58;;
61391;SDS011;47261;52.892;5.738;2023-03-01T01:33:48;376.13;;;25.13;;
61391;SDS011;47261;52.892;5.738;2023-03-01T01:36:14;332.88;;;25.52;;
61391;SDS011;47261;52.892;5.738;2023-03-01T01:38:40;225.27;;;20.73;;
61391;SDS011;47261;52.892;5.738;2023-03-01T01:41:07;117.22;;;11.15;;
61391;SDS011;47261;52.892;5.738;2023-03-01T01:43:40;136.65;;;13.70;;
61391;SDS011;47261;52.892;5.738;2023-03-01T01:49:02;55.40;;;8.35;;
61391;SDS011;47261;52.892;5.738;2023-03-01T01:51:42;43.50;;;7.47;;
61391;SDS011;47261;52.892;5.738;2023-03-01T01:54:27;40.67;;;6.85;;
61391;SDS011;47261;52.892;5.738;2023-03-01T01:57:00;72.18;;;8.38;;
61391;SDS011;47261;52.892;5.738;2023-03-01T01:59:28;104.35;;;9.55;;
61391;SDS011;47261;52.892;5.738;2023-03-01T02:01:56;17.60;;;6.18;;
61391;SDS011;47261;52.892;5.738;2023-03-01T02:04:28;49.53;;;7.75;;
61391;SDS011;47261;52.892;5.738;2023-03-01T02:06:58;40.42;;;4.85;;
61391;SDS011;47261;52.892;5.738;2023-03-01T02:09:36;55.30;;;7.65;;
61391;SDS011;47261;52.892;5.738;2023-03-01T02:12:03;60.15;;;8.35;;
61391;SDS011;47261;52.892;5.738;2023-03-01T02:14:29;21.80;;;5.97;;
61391;SDS011;47261;52.892;5.738;2023-03-01T02:16:55;26.50;;;6.80;;
61391;SDS011;47261;52.892;5.738;2023-03-01T02:22:28;17.33;;;5.33;;
61391;SDS011;47261;52.892;5.738;2023-03-01T02:27:42;29.58;;;6.57;;
61391;SDS011;47261;52.892;5.738;2023-03-01T02:30:21;18.17;;;7.10;;
61391;SDS011;47261;52.892;5.738;2023-03-01T02:32:47;25.52;;;7.47;;
61391;SDS011;47261;52.892;5.738;2023-03-01T02:35:14;49.70;;;7.93;;
61391;SDS011;47261;52.892;5.738;2023-03-01T02:37:43;60.65;;;8.15;;
61391;SDS011;47261;52.892;5.738;2023-03-01T02:40:10;30.20;;;6.93;;
61391;SDS011;47261;52.892;5.738;2023-03-01T02:42:55;16.98;;;6.70;;
61391;SDS011;47261;52.892;5.738;2023-03-01T02:45:22;39.22;;;6.30;;
61391;SDS011;47261;52.892;5.738;2023-03-01T02:47:48;45.60;;;7.80;;
61391;SDS011;47261;52.892;5.738;2023-03-01T02:50:18;36.47;;;7.00;;
61391;SDS011;47261;52.892;5.738;2023-03-01T02:55:26;18.77;;;6.63;;
61391;SDS011;47261;52.892;5.738;2023-03-01T02:57:52;14.57;;;6.97;;
61391;SDS011;47261;52.892;5.738;2023-03-01T03:00:31;28.60;;;5.75;;
61391;SDS011;47261;52.892;5.738;2023-03-01T03:03:00;15.02;;;5.63;;
61391;SDS011;47261;52.892;5.738;2023-03-01T03:05:27;23.98;;;6.45;;
61391;SDS011;47261;52.892;5.738;2023-03-01T03:07:55;19.33;;;5.93;;
61391;SDS011;47261;52.892;5.738;2023-03-01T03:10:25;41.75;;;8.05;;
61391;SDS011;47261;52.892;5.738;2023-03-01T03:12:58;65.20;;;8.25;;
61391;SDS011;47261;52.892;5.738;2023-03-01T03:15:35;146.70;;;12.45;;
61391;SDS011;47261;52.892;5.738;2023-03-01T03:18:02;116.55;;;11.77;;
61391;SDS011;47261;52.892;5.738;2023-03-01T03:20:30;121.30;;;12.00;;
61391;SDS011;47261;52.892;5.738;2023-03-01T03:22:57;162.95;;;12.82;;
61391;SDS011;47261;52.892;5.738;2023-03-01T03:25:23;146.90;;;11.25;;
61391;SDS011;47261;52.892;5.738;2023-03-01T03:27:51;20.15;;;5.90;;
61391;SDS011;47261;52.892;5.738;2023-03-01T03:30:21;49.07;;;7.80;;
61391;SDS011;47261;52.892;5.738;2023-03-01T03:32:49;29.15;;;4.72;;
61391;SDS011;47261;52.892;5.738;2023-03-01T03:35:19;32.40;;;6.28;;
61391;SDS011;47261;52.892;5.738;2023-03-01T03:37:55;47.05;;;6.65;;
61391;SDS011;47261;52.892;5.738;2023-03-01T03:40:27;161.55;;;14.77;;
61391;SDS011;47261;52.892;5.738;2023-03-01T03:42:58;158.73;;;16.65;;
61391;SDS011;47261;52.892;5.738;2023-03-01T03:45:23;114.50;;;11.63;;
61391;SDS011;47261;52.892;5.738;2023-03-01T03:47:49;248.40;;;15.53;;
61391;SDS011;47261;52.892;5.738;2023-03-01T03:50:15;91.60;;;11.52;;
61391;SDS011;47261;52.892;5.738;2023-03-01T03:52:42;36.50;;;6.22;;
61391;SDS011;47261;52.892;5.738;2023-03-01T03:55:10;13.87;;;4.87;;
61391;SDS011;47261;52.892;5.738;2023-03-01T03:57:37;56.03;;;6.68;;
61391;SDS011;47261;52.892;5.738;2023-03-01T04:00:04;58.65;;;9.02;;
61391;SDS011;47261;52.892;5.738;2023-03-01T04:02:38;77.25;;;7.25;;
61391;SDS011;47261;52.892;5.738;2023-03-01T04:05:07;116.90;;;11.25;;
61391;SDS011;47261;52.892;5.738;2023-03-01T04:07:34;76.37;;;9.20;;
61391;SDS011;47261;52.892;5.738;2023-03-01T04:10:02;167.90;;;11.48;;
61391;SDS011;47261;52.892;5.738;2023-03-01T04:12:28;128.57;;;15.55;;
61391;SDS011;47261;52.892;5.738;2023-03-01T04:14:54;32.75;;;5.70;;
61391;SDS011;47261;52.892;5.738;2023-03-01T04:17:19;116.13;;;12.87;;
61391;SDS011;47261;52.892;5.738;2023-03-01T04:19:45;230.57;;;18.17;;
61391;SDS011;47261;52.892;5.738;2023-03-01T04:22:13;133.23;;;13.02;;
61391;SDS011;47261;52.892;5.738;2023-03-01T04:24:43;96.07;;;10.85;;
61391;SDS011;47261;52.892;5.738;2023-03-01T04:27:09;79.15;;;7.88;;
61391;SDS011;47261;52.892;5.738;2023-03-01T04:29:35;115.55;;;11.15;;
61391;SDS011;47261;52.892;5.738;2023-03-01T04:32:00;278.55;;;18.88;;
61391;SDS011;47261;52.892;5.738;2023-03-01T04:34:27;53.80;;;6.95;;
61391;SDS011;47261;52.892;5.738;2023-03-01T04:36:54;92.03;;;8.27;;
61391;SDS011;47261;52.892;5.738;2023-03-01T04:39:19;96.72;;;8.07;;
61391;SDS011;47261;52.892;5.738;2023-03-01T04:41:45;72.37;;;8.40;;
61391;SDS011;47261;52.892;5.738;2023-03-01T04:44:10;71.93;;;8.52;;
61391;SDS011;47261;52.892;5.738;2023-03-01T04:46:36;98.90;;;8.70;;
61391;SDS011;47261;52.892;5.738;2023-03-01T04:49:02;99.93;;;7.67;;
61391;SDS011;47261;52.892;5.738;2023-03-01T04:51:28;47.42;;;6.32;;
61391;SDS011;47261;52.892;5.738;2023-03-01T04:53:54;159.57;;;9.80;;
61391;SDS011;47261;52.892;5.738;2023-03-01T04:56:20;33.85;;;5.28;;
61391;SDS011;47261;52.892;5.738;2023-03-01T04:58:48;198.10;;;12.43;;
61391;SDS011;47261;52.892;5.738;2023-03-01T05:01:17;171.55;;;15.20;;
61391;SDS011;47261;52.892;5.738;2023-03-01T05:03:45;143.88;;;12.98;;
61391;SDS011;47261;52.892;5.738;2023-03-01T05:06:12;237.80;;;15.55;;
61391;SDS011;47261;52.892;5.738;2023-03-01T05:08:39;114.50;;;12.70;;
61391;SDS011;47261;52.892;5.738;2023-03-01T05:11:05;119.07;;;13.45;;
61391;SDS011;47261;52.892;5.738;2023-03-01T05:13:33;57.58;;;7.30;;
61391;SDS011;47261;52.892;5.738;2023-03-01T05:16:00;42.63;;;6.47;;
61391;SDS011;47261;52.892;5.738;2023-03-01T05:18:31;95.43;;;9.50;;
61391;SDS011;47261;52.892;5.738;2023-03-01T05:21:03;78.50;;;10.03;;
61391;SDS011;47261;52.892;5.738;2023-03-01T05:23:33;124.28;;;10.32;;
61391;SDS011;47261;52.892;5.738;2023-03-01T05:26:00;244.32;;;15.63;;
61391;SDS011;47261;52.892;5.738;2023-03-01T05:28:27;380.13;;;23.92;;
61391;SDS011;47261;52.892;5.738;2023-03-01T05:30:53;253.20;;;15.10;;
61391;SDS011;47261;52.892;5.738;2023-03-01T05:33:20;318.13;;;23.47;;
61391;SDS011;47261;52.892;5.738;2023-03-01T05:35:47;376.27;;;25.05;;
61391;SDS011;47261;52.892;5.738;2023-03-01T05:38:13;219.63;;;16.23;;
61391;SDS011;47261;52.892;5.738;2023-03-01T05:40:43;372.70;;;22.92;;
61391;SDS011;47261;52.892;5.738;2023-03-01T05:43:11;300.58;;;21.55;;
61391;SDS011;47261;52.892;5.738;2023-03-01T05:45:38;401.80;;;24.30;;
61391;SDS011;47261;52.892;5.738;2023-03-01T05:48:05;317.58;;;21.20;;
61391;SDS011;47261;52.892;5.738;2023-03-01T05:50:33;219.40;;;20.15;;
61391;SDS011;47261;52.892;5.738;2023-03-01T05:53:02;257.83;;;16.95;;
61391;SDS011;47261;52.892;5.738;2023-03-01T05:55:33;206.68;;;16.10;;
61391;SDS011;47261;52.892;5.738;2023-03-01T05:58:00;316.70;;;24.10;;
61391;SDS011;47261;52.892;5.738;2023-03-01T06:00:26;148.60;;;10.55;;
61391;SDS011;47261;52.892;5.738;2023-03-01T06:02:53;209.23;;;17.25;;
61391;SDS011;47261;52.892;5.738;2023-03-01T06:05:19;102.53;;;10.30;;
61391;SDS011;47261;52.892;5.738;2023-03-01T06:07:45;70.63;;;8.10;;
61391;SDS011;47261;52.892;5.738;2023-03-01T06:10:11;126.37;;;12.77;;
61391;SDS011;47261;52.892;5.738;2023-03-01T06:12:38;178.80;;;13.15;;
61391;SDS011;47261;52.892;5.738;2023-03-01T06:15:06;300.98;;;20.88;;
61391;SDS011;47261;52.892;5.738;2023-03-01T06:17:35;92.18;;;9.35;;
61391;SDS011;47261;52.892;5.738;2023-03-01T06:20:07;269.08;;;15.38;;
61391;SDS011;47261;52.892;5.738;2023-03-01T06:22:44;255.43;;;16.52;;
61391;SDS011;47261;52.892;5.738;2023-03-01T06:25:12;315.40;;;20.00;;
61391;SDS011;47261;52.892;5.738;2023-03-01T06:27:39;243.40;;;16.52;;
61391;SDS011;47261;52.892;5.738;2023-03-01T06:30:05;169.73;;;16.00;;
61391;SDS011;47261;52.892;5.738;2023-03-01T06:32:32;254.63;;;19.38;;
61391;SDS011;47261;52.892;5.738;2023-03-01T06:34:57;215.45;;;17.60;;
61391;SDS011;47261;52.892;5.738;2023-03-01T06:37:24;172.73;;;17.37;;
61391;SDS011;47261;52.892;5.738;2023-03-01T06:39:50;194.25;;;18.48;;
61391;SDS011;47261;52.892;5.738;2023-03-01T06:42:15;84.20;;;13.03;;
61391;SDS011;47261;52.892;5.738;2023-03-01T06:44:41;120.60;;;10.95;;
61391;SDS011;47261;52.892;5.738;2023-03-01T06:47:07;345.48;;;24.80;;
61391;SDS011;47261;52.892;5.738;2023-03-01T06:49:32;248.23;;;15.47;;
61391;SDS011;47261;52.892;5.738;2023-03-01T06:51:58;348.47;;;22.17;;
61391;SDS011;47261;52.892;5.738;2023-03-01T06:54:24;446.27;;;22.75;;
61391;SDS011;47261;52.892;5.738;2023-03-01T06:56:50;173.97;;;13.53;;
61391;SDS011;47261;52.892;5.738;2023-03-01T06:59:15;270.15;;;20.55;;
61391;SDS011;47261;52.892;5.738;2023-03-01T07:01:42;338.23;;;20.73;;
61391;SDS011;47261;52.892;5.738;2023-03-01T07:04:09;180.00;;;13.27;;
61391;SDS011;47261;52.892;5.738;2023-03-01T07:06:35;111.45;;;12.95;;
61391;SDS011;47261;52.892;5.738;2023-03-01T07:09:00;144.75;;;13.93;;
61391;SDS011;47261;52.892;5.738;2023-03-01T07:11:26;282.10;;;20.73;;
61391;SDS011;47261;52.892;5.738;2023-03-01T07:13:52;189.45;;;17.15;;
61391;SDS011;47261;52.892;5.738;2023-03-01T07:16:17;149.90;;;14.67;;
61391;SDS011;47261;52.892;5.738;2023-03-01T07:18:45;300.95;;;18.58;;
61391;SDS011;47261;52.892;5.738;2023-03-01T07:21:11;158.27;;;13.70;;
61391;SDS011;47261;52.892;5.738;2023-03-01T07:23:38;113.38;;;11.27;;
61391;SDS011;47261;52.892;5.738;2023-03-01T07:26:04;108.35;;;12.32;;
61391;SDS011;47261;52.892;5.738;2023-03-01T07:28:30;221.80;;;20.03;;
61391;SDS011;47261;52.892;5.738;2023-03-01T07:31:00;226.20;;;19.52;;
61391;SDS011;47261;52.892;5.738;2023-03-01T07:33:26;159.20;;;15.18;;
61391;SDS011;47261;52.892;5.738;2023-03-01T07:36:02;99.03;;;13.80;;
61391;SDS011;47261;52.892;5.738;2023-03-01T07:38:29;189.10;;;16.75;;
61391;SDS011;47261;52.892;5.738;2023-03-01T07:40:59;88.40;;;14.15;;
61391;SDS011;47261;52.892;5.738;2023-03-01T07:43:26;163.35;;;18.33;;
61391;SDS011;47261;52.892;5.738;2023-03-01T07:45:52;73.40;;;14.40;;
61391;SDS011;47261;52.892;5.738;2023-03-01T07:48:18;57.78;;;13.40;;
61391;SDS011;47261;52.892;5.738;2023-03-01T07:50:43;62.93;;;12.70;;
61391;SDS011;47261;52.892;5.738;2023-03-01T07:53:09;71.95;;;14.02;;
61391;SDS011;47261;52.892;5.738;2023-03-01T07:55:35;112.20;;;14.83;;
61391;SDS011;47261;52.892;5.738;2023-03-01T07:58:01;77.80;;;12.60;;
61391;SDS011;47261;52.892;5.738;2023-03-01T08:00:27;101.53;;;14.85;;
61391;SDS011;47261;52.892;5.738;2023-03-01T08:02:53;66.93;;;13.27;;
61391;SDS011;47261;52.892;5.738;2023-03-01T08:05:18;47.83;;;12.67;;
61391;SDS011;47261;52.892;5.738;2023-03-01T08:07:44;50.33;;;11.73;;
61391;SDS011;47261;52.892;5.738;2023-03-01T08:10:10;68.83;;;14.70;;
61391;SDS011;47261;52.892;5.738;2023-03-01T08:12:36;131.77;;;18.45;;
61391;SDS011;47261;52.892;5.738;2023-03-01T08:15:01;46.67;;;12.23;;
61391;SDS011;47261;52.892;5.738;2023-03-01T08:17:27;95.18;;;15.63;;
61391;SDS011;47261;52.892;5.738;2023-03-01T08:19:53;110.93;;;15.87;;
61391;SDS011;47261;52.892;5.738;2023-03-01T08:22:18;94.35;;;14.40;;
61391;SDS011;47261;52.892;5.738;2023-03-01T08:24:44;50.33;;;13.70;;
61391;SDS011;47261;52.892;5.738;2023-03-01T08:27:09;97.87;;;14.23;;
61391;SDS011;47261;52.892;5.738;2023-03-01T08:29:37;70.93;;;12.50;;
61391;SDS011;47261;52.892;5.738;2023-03-01T08:32:02;87.57;;;14.45;;
61391;SDS011;47261;52.892;5.738;2023-03-01T08:34:28;29.53;;;11.53;;
61391;SDS011;47261;52.892;5.738;2023-03-01T08:36:54;29.08;;;11.73;;
61391;SDS011;47261;52.892;5.738;2023-03-01T08:39:21;24.33;;;10.90;;
61391;SDS011;47261;52.892;5.738;2023-03-01T08:41:47;31.25;;;11.50;;
61391;SDS011;47261;52.892;5.738;2023-03-01T08:44:13;91.60;;;13.77;;
61391;SDS011;47261;52.892;5.738;2023-03-01T08:46:42;58.22;;;11.68;;
61391;SDS011;47261;52.892;5.738;2023-03-01T08:49:09;30.10;;;10.50;;
61391;SDS011;47261;52.892;5.738;2023-03-01T08:51:37;23.07;;;10.13;;
61391;SDS011;47261;52.892;5.738;2023-03-01T08:54:04;19.83;;;9.98;;
61391;SDS011;47261;52.892;5.738;2023-03-01T08:56:30;25.67;;;11.98;;
61391;SDS011;47261;52.892;5.738;2023-03-01T08:58:56;24.90;;;12.50;;
61391;SDS011;47261;52.892;5.738;2023-03-01T09:01:22;28.13;;;12.03;;
61391;SDS011;47261;52.892;5.738;2023-03-01T09:03:47;24.23;;;11.48;;
61391;SDS011;47261;52.892;5.738;2023-03-01T09:06:13;21.15;;;10.48;;
61391;SDS011;47261;52.892;5.738;2023-03-01T09:08:41;22.73;;;11.00;;
61391;SDS011;47261;52.892;5.738;2023-03-01T09:11:09;24.63;;;10.40;;
61391;SDS011;47261;52.892;5.738;2023-03-01T09:13:36;22.10;;;11.00;;
61391;SDS011;47261;52.892;5.738;2023-03-01T09:16:03;22.67;;;11.10;;
61391;SDS011;47261;52.892;5.738;2023-03-01T09:18:31;25.67;;;12.00;;
61391;SDS011;47261;52.892;5.738;2023-03-01T09:21:16;27.08;;;12.40;;
61391;SDS011;47261;52.892;5.738;2023-03-01T09:23:44;25.10;;;12.70;;
61391;SDS011;47261;52.892;5.738;2023-03-01T09:26:15;28.95;;;13.82;;
61391;SDS011;47261;52.892;5.738;2023-03-01T09:28:44;28.88;;;13.07;;
61391;SDS011;47261;52.892;5.738;2023-03-01T09:31:11;26.17;;;12.30;;
61391;SDS011;47261;52.892;5.738;2023-03-01T09:33:38;25.75;;;13.15;;
61391;SDS011;47261;52.892;5.738;2023-03-01T09:36:05;31.83;;;14.13;;
61391;SDS011;47261;52.892;5.738;2023-03-01T09:38:32;28.58;;;13.20;;
61391;SDS011;47261;52.892;5.738;2023-03-01T09:40:59;30.02;;;14.05;;
61391;SDS011;47261;52.892;5.738;2023-03-01T09:46:07;39.83;;;17.93;;
61391;SDS011;47261;52.892;5.738;2023-03-01T09:48:41;36.60;;;17.83;;
61391;SDS011;47261;52.892;5.738;2023-03-01T09:51:15;40.67;;;17.85;;
61391;SDS011;47261;52.892;5.738;2023-03-01T09:53:44;43.33;;;19.95;;
61391;SDS011;47261;52.892;5.738;2023-03-01T09:56:12;37.00;;;18.33;;
61391;SDS011;47261;52.892;5.738;2023-03-01T10:01:53;45.13;;;20.25;;
61391;SDS011;47261;52.892;5.738;2023-03-01T10:09:36;36.63;;;16.15;;
61391;SDS011;47261;52.892;5.738;2023-03-01T10:12:25;37.03;;;15.77;;
61391;SDS011;47261;52.892;5.738;2023-03-01T10:15:06;34.08;;;16.48;;
61391;SDS011;47261;52.892;5.738;2023-03-01T10:17:45;41.60;;;18.00;;
61391;SDS011;47261;52.892;5.738;2023-03-01T10:20:25;42.10;;;16.27;;
61391;SDS011;47261;52.892;5.738;2023-03-01T10:23:07;39.85;;;14.68;;
61391;SDS011;47261;52.892;5.738;2023-03-01T10:25:47;39.57;;;16.90;;
61391;SDS011;47261;52.892;5.738;2023-03-01T10:28:34;36.22;;;14.73;;
61391;SDS011;47261;52.892;5.738;2023-03-01T10:31:19;29.33;;;12.48;;
61391;SDS011;47261;52.892;5.738;2023-03-01T10:33:53;26.67;;;11.65;;
61391;SDS011;47261;52.892;5.738;2023-03-01T10:36:20;27.33;;;11.35;;
61391;SDS011;47261;52.892;5.738;2023-03-01T10:38:51;19.43;;;9.33;;
61391;SDS011;47261;52.892;5.738;2023-03-01T10:41:19;21.63;;;9.98;;
61391;SDS011;47261;52.892;5.738;2023-03-01T10:43:49;26.17;;;11.02;;
61391;SDS011;47261;52.892;5.738;2023-03-01T10:49:06;27.40;;;11.85;;
61391;SDS011;47261;52.892;5.738;2023-03-01T10:51:42;23.60;;;10.80;;
61391;SDS011;47261;52.892;5.738;2023-03-01T10:54:28;19.90;;;10.35;;
61391;SDS011;47261;52.892;5.738;2023-03-01T10:57:00;19.73;;;9.38;;
61391;SDS011;47261;52.892;5.738;2023-03-01T10:59:32;21.63;;;9.70;;
61391;SDS011;47261;52.892;5.738;2023-03-01T11:05:18;19.23;;;9.30;;
61391;SDS011;47261;52.892;5.738;2023-03-01T11:07:49;17.98;;;9.30;;
61391;SDS011;47261;52.892;5.738;2023-03-01T11:10:30;18.23;;;9.07;;
61391;SDS011;47261;52.892;5.738;2023-03-01T11:13:14;16.75;;;7.97;;
61391;SDS011;47261;52.892;5.738;2023-03-01T11:15:42;18.92;;;7.55;;
61391;SDS011;47261;52.892;5.738;2023-03-01T11:18:22;18.13;;;7.77;;
61391;SDS011;47261;52.892;5.738;2023-03-01T11:20:48;17.35;;;9.02;;
61391;SDS011;47261;52.892;5.738;2023-03-01T11:23:18;20.30;;;8.77;;
61391;SDS011;47261;52.892;5.738;2023-03-01T11:25:48;17.25;;;8.50;;
61391;SDS011;47261;52.892;5.738;2023-03-01T11:28:19;20.42;;;9.32;;
61391;SDS011;47261;52.892;5.738;2023-03-01T11:31:03;18.33;;;7.93;;
61391;SDS011;47261;52.892;5.738;2023-03-01T11:36:40;18.95;;;8.50;;
61391;SDS011;47261;52.892;5.738;2023-03-01T11:41:49;14.90;;;8.20;;
61391;SDS011;47261;52.892;5.738;2023-03-01T11:44:25;16.50;;;8.10;;
61391;SDS011;47261;52.892;5.738;2023-03-01T11:50:13;16.77;;;8.20;;
61391;SDS011;47261;52.892;5.738;2023-03-01T12:01:07;16.08;;;7.38;;
61391;SDS011;47261;52.892;5.738;2023-03-01T12:09:07;14.50;;;5.85;;
61391;SDS011;47261;52.892;5.738;2023-03-01T12:14:31;15.57;;;7.93;;
61391;SDS011;47261;52.892;5.738;2023-03-01T12:20:21;14.20;;;6.38;;
61391;SDS011;47261;52.892;5.738;2023-03-01T12:23:02;14.40;;;7.25;;
61391;SDS011;47261;52.892;5.738;2023-03-01T12:25:48;13.50;;;7.13;;
61391;SDS011;47261;52.892;5.738;2023-03-01T12:47:12;14.05;;;6.45;;
61391;SDS011;47261;52.892;5.738;2023-03-01T12:49:45;13.50;;;6.50;;
61391;SDS011;47261;52.892;5.738;2023-03-01T12:52:37;16.50;;;6.60;;
61391;SDS011;47261;52.892;5.738;2023-03-01T12:55:03;14.55;;;6.82;;
61391;SDS011;47261;52.892;5.738;2023-03-01T12:57:42;14.40;;;6.93;;
61391;SDS011;47261;52.892;5.738;2023-03-01T13:06:01;14.67;;;6.57;;
61391;SDS011;47261;52.892;5.738;2023-03-01T13:09:15;15.05;;;7.18;;
61391;SDS011;47261;52.892;5.738;2023-03-01T13:11:27;16.85;;;7.00;;
61391;SDS011;47261;52.892;5.738;2023-03-01T13:14:18;16.37;;;7.83;;
61391;SDS011;47261;52.892;5.738;2023-03-01T13:16:48;18.07;;;6.17;;
61391;SDS011;47261;52.892;5.738;2023-03-01T13:19:19;13.70;;;6.18;;
61391;SDS011;47261;52.892;5.738;2023-03-01T13:21:49;16.02;;;7.10;;
61391;SDS011;47261;52.892;5.738;2023-03-01T13:24:38;16.05;;;7.57;;
61391;SDS011;47261;52.892;5.738;2023-03-01T13:29:43;16.57;;;7.23;;
61391;SDS011;47261;52.892;5.738;2023-03-01T13:32:26;14.35;;;7.18;;
61391;SDS011;47261;52.892;5.738;2023-03-01T13:37:22;15.27;;;7.43;;
61391;SDS011;47261;52.892;5.738;2023-03-01T13:39:51;15.95;;;7.43;;
61391;SDS011;47261;52.892;5.738;2023-03-01T13:42:36;13.23;;;5.93;;
61391;SDS011;47261;52.892;5.738;2023-03-01T13:45:12;15.93;;;6.50;;
61391;SDS011;47261;52.892;5.738;2023-03-01T13:47:39;12.73;;;5.85;;
61391;SDS011;47261;52.892;5.738;2023-03-01T13:50:15;14.43;;;5.57;;
61391;SDS011;47261;52.892;5.738;2023-03-01T13:52:50;13.30;;;4.35;;
61391;SDS011;47261;52.892;5.738;2023-03-01T13:58:04;14.52;;;7.10;;
61391;SDS011;47261;52.892;5.738;2023-03-01T14:00:40;14.93;;;5.95;;
61391;SDS011;47261;52.892;5.738;2023-03-01T14:05:43;10.55;;;4.82;;
61391;SDS011;47261;52.892;5.738;2023-03-01T14:08:25;14.43;;;6.05;;
61391;SDS011;47261;52.892;5.738;2023-03-01T14:11:02;14.20;;;6.72;;
61391;SDS011;47261;52.892;5.738;2023-03-01T14:14:10;14.05;;;6.07;;
61391;SDS011;47261;52.892;5.738;2023-03-01T14:19:55;15.18;;;5.70;;
61391;SDS011;47261;52.892;5.738;2023-03-01T14:22:27;12.95;;;5.93;;
61391;SDS011;47261;52.892;5.738;2023-03-01T14:24:56;12.60;;;6.13;;
61391;SDS011;47261;52.892;5.738;2023-03-01T14:27:26;11.70;;;5.50;;
61391;SDS011;47261;52.892;5.738;2023-03-01T14:30:09;12.57;;;6.40;;
61391;SDS011;47261;52.892;5.738;2023-03-01T14:32:39;17.77;;;7.10;;
61391;SDS011;47261;52.892;5.738;2023-03-01T14:38:01;14.97;;;6.73;;
61391;SDS011;47261;52.892;5.738;2023-03-01T14:40:29;12.73;;;5.20;;
61391;SDS011;47261;52.892;5.738;2023-03-01T14:42:58;14.43;;;6.88;;
61391;SDS011;47261;52.892;5.738;2023-03-01T14:45:27;15.77;;;6.88;;
61391;SDS011;47261;52.892;5.738;2023-03-01T14:47:55;10.88;;;4.85;;
61391;SDS011;47261;52.892;5.738;2023-03-01T14:50:27;13.90;;;6.80;;
61391;SDS011;47261;52.892;5.738;2023-03-01T14:52:56;15.77;;;7.72;;
61391;SDS011;47261;52.892;5.738;2023-03-01T14:55:26;16.85;;;7.53;;
61391;SDS011;47261;52.892;5.738;2023-03-01T14:58:02;15.02;;;4.75;;
61391;SDS011;47261;52.892;5.738;2023-03-01T15:00:30;15.50;;;7.10;;
61391;SDS011;47261;52.892;5.738;2023-03-01T15:03:00;15.83;;;6.40;;
61391;SDS011;47261;52.892;5.738;2023-03-01T15:05:46;14.90;;;6.97;;
61391;SDS011;47261;52.892;5.738;2023-03-01T15:08:23;16.30;;;7.68;;
61391;SDS011;47261;52.892;5.738;2023-03-01T15:13:43;16.48;;;7.28;;
61391;SDS011;47261;52.892;5.738;2023-03-01T15:16:15;14.43;;;6.27;;
61391;SDS011;47261;52.892;5.738;2023-03-01T15:18:48;15.82;;;6.88;;
61391;SDS011;47261;52.892;5.738;2023-03-01T15:21:16;15.25;;;7.20;;
61391;SDS011;47261;52.892;5.738;2023-03-01T15:23:52;15.68;;;7.40;;
61391;SDS011;47261;52.892;5.738;2023-03-01T15:26:23;16.33;;;7.63;;
61391;SDS011;47261;52.892;5.738;2023-03-01T15:28:53;15.20;;;7.03;;
61391;SDS011;47261;52.892;5.738;2023-03-01T15:31:32;15.02;;;7.65;;
61391;SDS011;47261;52.892;5.738;2023-03-01T15:34:21;15.43;;;7.63;;
61391;SDS011;47261;52.892;5.738;2023-03-01T15:36:47;16.63;;;7.60;;
61391;SDS011;47261;52.892;5.738;2023-03-01T15:42:45;16.07;;;7.40;;
61391;SDS011;47261;52.892;5.738;2023-03-01T15:45:06;14.90;;;6.78;;
61391;SDS011;47261;52.892;5.738;2023-03-01T15:47:58;15.00;;;6.32;;
61391;SDS011;47261;52.892;5.738;2023-03-01T15:53:00;15.50;;;7.18;;
61391;SDS011;47261;52.892;5.738;2023-03-01T15:55:31;14.90;;;6.53;;
61391;SDS011;47261;52.892;5.738;2023-03-01T16:00:48;18.52;;;7.35;;
61391;SDS011;47261;52.892;5.738;2023-03-01T16:03:17;15.60;;;6.45;;
61391;SDS011;47261;52.892;5.738;2023-03-01T16:05:46;16.33;;;6.60;;
61391;SDS011;47261;52.892;5.738;2023-03-01T16:08:13;16.73;;;8.07;;
61391;SDS011;47261;52.892;5.738;2023-03-01T16:10:39;18.15;;;8.63;;
61391;SDS011;47261;52.892;5.738;2023-03-01T16:13:06;16.50;;;8.15;;
61391;SDS011;47261;52.892;5.738;2023-03-01T16:15:33;17.55;;;8.23;;
61391;SDS011;47261;52.892;5.738;2023-03-01T16:18:00;17.90;;;8.17;;
61391;SDS011;47261;52.892;5.738;2023-03-01T16:20:27;17.23;;;8.10;;
61391;SDS011;47261;52.892;5.738;2023-03-01T16:22:54;16.67;;;8.13;;
61391;SDS011;47261;52.892;5.738;2023-03-01T16:25:22;23.10;;;8.40;;
61391;SDS011;47261;52.892;5.738;2023-03-01T16:27:49;19.43;;;8.90;;